Time;durP1;ratioP1;P1;durP2;ratioP2;P2;SDS_P1;SDS_P2;PMS_P1;PMS_P2;Temp;Humidity;BMP_temperature;BMP_pressure;BME280_temperature;BME280_humidity;BME280_pressure;Samples;Min_cycle;Max_cycle;Signal;HPM_P1;HPM_P2
2021/07/03 00:00:11;;;;;;;12.43;7.12;;;18.90;99.90;;;;;;1945355;72;21167;-71
2021/07/03 00:02:39;;;;;;;12.13;7.42;;;18.90;99.90;;;;;;1945289;72;21065;-71
2021/07/03 00:05:07;;;;;;;11.28;7.83;;;18.90;99.90;;;;;;1945915;72;21098;-71
2021/07/03 00:07:34;;;;;;;16.40;8.18;;;18.80;99.90;;;;;;1931939;72;21149;-71
2021/07/03 00:10:03;;;;;;;12.75;8.08;;;18.80;99.90;;;;;;1941698;72;21153;-71
2021/07/03 00:12:31;;;;;;;13.00;8.88;;;18.70;99.90;;;;;;1940316;72;21640;-71
2021/07/03 00:14:58;;;;;;;15.70;8.78;;;18.70;99.90;;;;;;1942552;72;21062;-71
2021/07/03 00:17:27;;;;;;;13.03;8.48;;;18.70;99.90;;;;;;1945824;72;21102;-71
2021/07/03 00:19:54;;;;;;;15.15;9.23;;;18.80;99.90;;;;;;1945660;72;21156;-71
2021/07/03 00:22:22;;;;;;;12.25;8.63;;;18.70;99.90;;;;;;1937935;72;21047;-71
2021/07/03 00:24:49;;;;;;;12.23;9.03;;;18.70;99.90;;;;;;1945381;72;21145;-71
2021/07/03 00:27:17;;;;;;;19.73;9.90;;;18.70;99.90;;;;;;1945383;72;21152;-71
2021/07/03 00:29:44;;;;;;;15.63;9.78;;;18.70;99.90;;;;;;1911988;74;21421;-71
2021/07/03 00:32:12;;;;;;;14.10;9.85;;;18.70;99.90;;;;;;1917556;72;21125;-71
2021/07/03 00:34:39;;;;;;;14.63;9.18;;;18.70;99.90;;;;;;1925655;72;21541;-71
2021/07/03 00:37:07;;;;;;;19.73;10.32;;;18.70;99.90;;;;;;1940912;72;21083;-71
2021/07/03 00:39:34;;;;;;;17.65;9.85;;;18.70;99.90;;;;;;1930852;72;21091;-71
2021/07/03 00:42:02;;;;;;;14.30;9.58;;;18.70;99.90;;;;;;1943439;72;21561;-71
2021/07/03 00:44:32;;;;;;;15.30;9.80;;;18.70;99.90;;;;;;1945142;74;21186;-71
2021/07/03 00:47:03;;;;;;;14.00;9.83;;;18.70;99.90;;;;;;1944828;72;21188;-72
2021/07/03 00:49:31;;;;;;;16.05;9.43;;;18.60;99.90;;;;;;1936805;72;21079;-71
2021/07/03 00:51:59;;;;;;;17.95;9.83;;;18.70;99.90;;;;;;1946239;72;21521;-71
2021/07/03 00:54:28;;;;;;;19.67;9.38;;;18.60;99.90;;;;;;1945631;72;21030;-71
2021/07/03 00:57:03;;;;;;;16.32;9.25;;;18.60;99.90;;;;;;1946165;72;21048;-71
2021/07/03 00:59:35;;;;;;;14.50;9.03;;;18.60;99.90;;;;;;1938392;72;21066;-71
2021/07/03 01:02:02;;;;;;;;;;;18.50;99.90;;;;;;1949273;72;21018;-71
2021/07/03 01:04:30;;;;;;;15.32;9.00;;;18.50;99.90;;;;;;1936554;72;20126;-71
2021/07/03 01:06:58;;;;;;;13.98;8.73;;;18.50;99.90;;;;;;1938162;72;21031;-71
2021/07/03 01:09:26;;;;;;;14.53;9.65;;;18.50;99.90;;;;;;1946520;72;21517;-71
2021/07/03 01:11:53;;;;;;;16.77;9.45;;;18.50;99.90;;;;;;1944433;72;21019;-71
2021/07/03 01:14:21;;;;;;;15.03;9.28;;;18.40;99.90;;;;;;1946010;72;20999;-71
2021/07/03 01:16:50;;;;;;;12.75;9.08;;;18.40;99.90;;;;;;1945706;72;21027;-71
2021/07/03 01:19:18;;;;;;;20.65;8.90;;;18.40;99.90;;;;;;1947852;72;21054;-71
2021/07/03 01:21:49;;;;;;;13.85;8.78;;;18.40;99.90;;;;;;1945680;72;21136;-71
2021/07/03 01:24:17;;;;;;;14.73;8.95;;;18.40;99.90;;;;;;1925326;72;21660;-71
2021/07/03 01:26:51;;;;;;;14.58;9.78;;;18.40;99.90;;;;;;1944774;72;21454;-71
2021/07/03 01:29:21;;;;;;;15.05;8.68;;;18.30;99.90;;;;;;1945566;72;21066;-71
2021/07/03 01:31:52;;;;;;;15.32;9.35;;;18.30;99.90;;;;;;1916171;72;21513;-71
2021/07/03 01:34:23;;;;;;;13.95;8.90;;;18.30;99.90;;;;;;1934025;74;21144;-71
2021/07/03 01:36:50;;;;;;;15.10;9.60;;;18.30;99.90;;;;;;1945977;72;21082;-71
2021/07/03 01:39:18;;;;;;;15.80;9.50;;;18.20;99.90;;;;;;1945972;72;21207;-71
2021/07/03 01:41:45;;;;;;;12.98;9.70;;;18.20;99.90;;;;;;1945975;72;21035;-71
2021/07/03 01:44:13;;;;;;;13.25;9.68;;;18.20;99.90;;;;;;1944797;72;21027;-71
2021/07/03 01:46:40;;;;;;;16.27;9.83;;;18.10;99.90;;;;;;1923178;72;21532;-71
2021/07/03 01:49:09;;;;;;;16.57;9.38;;;18.10;99.90;;;;;;1945892;72;21956;-71
2021/07/03 01:51:39;;;;;;;15.20;9.60;;;18.10;99.90;;;;;;1946091;74;21050;-71
2021/07/03 01:54:06;;;;;;;14.98;9.33;;;18.10;99.90;;;;;;1945616;72;21164;-71
2021/07/03 01:56:34;;;;;;;18.40;9.83;;;18.00;99.90;;;;;;1945595;72;21855;-71
2021/07/03 01:59:01;;;;;;;17.75;9.68;;;18.00;99.90;;;;;;1945539;72;21478;-71
2021/07/03 02:01:29;;;;;;;21.30;10.03;;;18.00;99.90;;;;;;1943806;72;21052;-71
2021/07/03 02:03:56;;;;;;;22.82;10.68;;;18.00;99.90;;;;;;1944839;72;21067;-71
2021/07/03 02:06:24;;;;;;;17.48;9.58;;;18.00;99.90;;;;;;1945260;72;22086;-71
2021/07/03 02:08:51;;;;;;;20.50;10.05;;;17.90;99.90;;;;;;1937294;72;21084;-71
2021/07/03 02:11:19;;;;;;;15.18;9.90;;;17.90;99.90;;;;;;1944942;72;21099;-71
2021/07/03 02:13:46;;;;;;;18.73;9.45;;;17.80;99.90;;;;;;1945316;72;21081;-71
2021/07/03 02:16:14;;;;;;;16.02;9.73;;;17.90;99.90;;;;;;1941744;72;21109;-70
2021/07/03 02:18:41;;;;;;;25.60;10.32;;;17.90;99.90;;;;;;1909877;72;21110;-71
2021/07/03 02:21:09;;;;;;;12.47;9.48;;;17.80;99.90;;;;;;1945365;72;21172;-71
2021/07/03 02:23:36;;;;;;;13.48;9.43;;;17.80;99.90;;;;;;1919852;72;21143;-71
2021/07/03 02:26:04;;;;;;;15.88;10.10;;;17.80;99.90;;;;;;1941223;72;21215;-71
2021/07/03 02:28:31;;;;;;;15.15;10.10;;;17.70;99.90;;;;;;1945081;72;21132;-71
2021/07/03 02:30:59;;;;;;;13.83;9.33;;;17.60;99.90;;;;;;1945167;72;21074;-71
2021/07/03 02:33:26;;;;;;;17.25;9.73;;;17.70;99.90;;;;;;1933635;72;21068;-71
2021/07/03 02:35:54;;;;;;;14.70;9.83;;;17.70;99.90;;;;;;1926711;72;21082;-70
2021/07/03 02:38:22;;;;;;;15.55;10.18;;;17.70;99.90;;;;;;1943774;72;21678;-72
2021/07/03 02:40:49;;;;;;;15.80;10.63;;;17.60;99.90;;;;;;1921055;72;21078;-72
2021/07/03 02:43:17;;;;;;;15.35;10.90;;;17.60;99.90;;;;;;1936917;72;21157;-72
2021/07/03 02:45:45;;;;;;;14.83;10.85;;;17.50;99.90;;;;;;1938948;72;21109;-72
2021/07/03 02:48:12;;;;;;;19.48;11.28;;;17.50;99.90;;;;;;1945514;72;22149;-72
2021/07/03 02:50:40;;;;;;;16.27;10.03;;;17.50;99.90;;;;;;1945238;72;21051;-72
2021/07/03 02:53:07;;;;;;;16.75;11.12;;;17.40;99.90;;;;;;1945265;72;21097;-72
2021/07/03 02:55:35;;;;;;;14.87;10.25;;;17.40;99.90;;;;;;1944206;72;21086;-72
2021/07/03 02:58:02;;;;;;;18.30;9.75;;;17.40;99.90;;;;;;1945571;72;21138;-72
2021/07/03 03:00:30;;;;;;;18.30;10.10;;;17.30;99.90;;;;;;1942687;72;21156;-72
2021/07/03 03:02:57;;;;;;;16.73;10.35;;;17.40;99.90;;;;;;1932643;72;21099;-72
2021/07/03 03:05:25;;;;;;;18.37;11.15;;;17.40;99.90;;;;;;1912129;72;21098;-72
2021/07/03 03:07:53;;;;;;;17.20;11.55;;;17.40;99.90;;;;;;1944971;72;21179;-72
2021/07/03 03:10:21;;;;;;;16.70;11.68;;;17.40;99.90;;;;;;1944896;72;21078;-72
2021/07/03 03:12:49;;;;;;;16.42;11.08;;;17.40;99.90;;;;;;1945328;72;21070;-71
2021/07/03 03:15:17;;;;;;;19.05;11.75;;;17.30;99.90;;;;;;1945330;72;21098;-71
2021/07/03 03:17:45;;;;;;;16.60;11.57;;;17.30;99.90;;;;;;1945364;72;21087;-71
2021/07/03 03:20:13;;;;;;;21.97;11.65;;;17.30;99.90;;;;;;1943775;72;21148;-71
2021/07/03 03:22:42;;;;;;;17.75;11.10;;;17.30;99.90;;;;;;1945206;72;21038;-71
2021/07/03 03:25:11;;;;;;;19.15;11.70;;;17.30;99.90;;;;;;1946107;72;21078;-71
2021/07/03 03:27:39;;;;;;;15.50;11.33;;;17.30;99.90;;;;;;1931300;72;21019;-72
2021/07/03 03:30:08;;;;;;;15.98;11.50;;;17.30;99.90;;;;;;1929414;72;21043;-72
2021/07/03 03:32:36;;;;;;;19.00;13.38;;;17.30;99.90;;;;;;1945656;72;21175;-72
2021/07/03 03:35:04;;;;;;;22.37;12.95;;;17.30;99.90;;;;;;1944436;72;21155;-72
2021/07/03 03:37:31;;;;;;;18.67;12.03;;;17.30;99.90;;;;;;1944842;72;21172;-72
2021/07/03 03:39:59;;;;;;;19.45;12.20;;;17.20;99.90;;;;;;1945178;72;21051;-72
2021/07/03 03:42:27;;;;;;;15.70;11.88;;;17.20;99.90;;;;;;1945456;72;22114;-72
2021/07/03 03:44:54;;;;;;;18.15;10.48;;;17.20;99.90;;;;;;1945637;72;21098;-72
2021/07/03 03:47:22;;;;;;;14.00;11.40;;;17.30;99.90;;;;;;1945460;72;21086;-72
2021/07/03 03:49:50;;;;;;;15.90;11.75;;;17.30;99.90;;;;;;1943556;72;21131;-71
2021/07/03 03:52:17;;;;;;;17.35;12.60;;;17.30;99.90;;;;;;1945414;72;21596;-72
2021/07/03 03:54:45;;;;;;;22.22;12.18;;;17.30;99.90;;;;;;1940236;72;21098;-71
2021/07/03 03:57:21;;;;;;;15.68;11.78;;;17.30;99.90;;;;;;1945466;72;21089;-71
2021/07/03 03:59:51;;;;;;;20.52;12.73;;;17.40;99.90;;;;;;1945402;72;21204;-71
2021/07/03 04:02:19;;;;;;;15.13;11.43;;;17.40;99.90;;;;;;1924365;72;21136;-71
2021/07/03 04:04:47;;;;;;;18.42;11.10;;;17.40;99.90;;;;;;1946433;72;21110;-71
2021/07/03 04:07:15;;;;;;;20.72;11.63;;;17.40;99.90;;;;;;1943446;72;21008;-71
2021/07/03 04:09:42;;;;;;;14.68;11.25;;;17.40;99.90;;;;;;1946551;72;21371;-71
2021/07/03 04:12:10;;;;;;;17.10;12.85;;;17.40;99.90;;;;;;1946043;72;21094;-71
2021/07/03 04:14:37;;;;;;;17.23;12.95;;;17.40;99.90;;;;;;1926804;72;21081;-71
2021/07/03 04:17:05;;;;;;;19.23;12.03;;;17.50;99.90;;;;;;1946136;72;21082;-71
2021/07/03 04:19:33;;;;;;;16.70;11.60;;;17.50;99.90;;;;;;1945263;72;21331;-71
2021/07/03 04:22:01;;;;;;;16.50;12.15;;;17.50;99.90;;;;;;1943233;72;21536;-71
2021/07/03 04:24:28;;;;;;;20.65;13.38;;;17.60;99.90;;;;;;1944940;72;21078;-71
2021/07/03 04:26:56;;;;;;;17.45;13.50;;;17.60;99.90;;;;;;1945559;72;21695;-71
2021/07/03 04:29:23;;;;;;;18.90;13.25;;;17.60;99.90;;;;;;1934127;72;21093;-71
2021/07/03 04:31:51;;;;;;;18.60;12.33;;;17.60;99.90;;;;;;1939826;72;21066;-71
2021/07/03 04:34:18;;;;;;;18.00;13.08;;;17.60;99.90;;;;;;1939626;72;21517;-71
2021/07/03 04:36:46;;;;;;;19.00;13.15;;;17.70;99.90;;;;;;1913911;72;21090;-71
2021/07/03 04:39:13;;;;;;;17.50;13.85;;;17.70;99.90;;;;;;1944525;72;21050;-71
2021/07/03 04:41:41;;;;;;;17.12;12.85;;;17.70;99.90;;;;;;1944742;72;21148;-71
2021/07/03 04:44:08;;;;;;;19.50;13.55;;;17.80;99.90;;;;;;1944095;72;21082;-71
2021/07/03 04:46:36;;;;;;;20.10;13.70;;;17.80;99.90;;;;;;1945598;72;21090;-72
2021/07/03 04:49:04;;;;;;;21.25;14.40;;;17.90;99.90;;;;;;1940309;72;21518;-71
2021/07/03 04:51:32;;;;;;;21.30;14.63;;;18.00;99.90;;;;;;1914301;72;21143;-72
2021/07/03 04:53:59;;;;;;;22.07;15.00;;;18.10;99.90;;;;;;1908706;72;21109;-72
2021/07/03 04:56:27;;;;;;;21.65;15.38;;;18.10;99.90;;;;;;1918272;72;21072;-71
2021/07/03 04:58:55;;;;;;;25.05;14.83;;;18.10;99.90;;;;;;1945823;72;21612;-71
2021/07/03 05:01:23;;;;;;;24.52;14.43;;;18.20;99.90;;;;;;1944675;72;21099;-71
2021/07/03 05:03:51;;;;;;;21.97;13.98;;;18.30;99.90;;;;;;1945783;72;21544;-71
2021/07/03 05:06:19;;;;;;;20.55;13.68;;;18.40;99.90;;;;;;1945961;74;21112;-72
2021/07/03 05:08:47;;;;;;;26.17;14.38;;;18.40;99.90;;;;;;1946159;72;21091;-72
2021/07/03 05:11:14;;;;;;;25.40;13.95;;;18.50;99.90;;;;;;1945608;72;21074;-71
2021/07/03 05:13:42;;;;;;;21.48;12.85;;;18.60;99.90;;;;;;1945692;72;21116;-72
2021/07/03 05:16:09;;;;;;;20.77;13.68;;;18.60;99.90;;;;;;1944636;72;21164;-71
2021/07/03 05:18:37;;;;;;;22.82;13.28;;;18.70;99.90;;;;;;1944808;71;21146;-72
2021/07/03 05:21:04;;;;;;;19.12;12.28;;;18.70;99.90;;;;;;1945656;72;21113;-71
2021/07/03 05:23:32;;;;;;;19.73;12.65;;;18.80;99.90;;;;;;1943490;72;21067;-72
2021/07/03 05:26:00;;;;;;;17.20;10.93;;;18.80;99.90;;;;;;1944694;72;21117;-72
2021/07/03 05:28:27;;;;;;;22.65;11.10;;;18.80;99.90;;;;;;1945421;72;21130;-72
2021/07/03 05:30:56;;;;;;;16.80;10.45;;;18.90;99.90;;;;;;1933123;74;21067;-71
2021/07/03 05:33:23;;;;;;;21.27;10.28;;;19.00;99.90;;;;;;1935421;72;21075;-72
2021/07/03 05:35:51;;;;;;;20.70;11.03;;;19.00;99.90;;;;;;1943239;72;21098;-72
2021/07/03 05:38:18;;;;;;;17.35;10.08;;;19.10;99.90;;;;;;1945278;72;21187;-71
2021/07/03 05:40:46;;;;;;;17.92;10.13;;;19.10;99.90;;;;;;1944791;72;21491;-71
2021/07/03 05:43:13;;;;;;;18.62;9.78;;;19.10;99.90;;;;;;1944221;72;21533;-71
2021/07/03 05:45:41;;;;;;;13.95;9.30;;;19.10;99.90;;;;;;1945402;72;21090;-71
2021/07/03 05:48:09;;;;;;;14.68;9.30;;;19.20;99.90;;;;;;1944109;72;21101;-72
2021/07/03 05:50:37;;;;;;;19.57;9.58;;;19.20;99.90;;;;;;1945427;72;21058;-72
2021/07/03 05:53:04;;;;;;;23.73;9.18;;;19.20;99.90;;;;;;1945461;72;21015;-71
2021/07/03 05:55:32;;;;;;;15.95;8.88;;;19.30;99.90;;;;;;1945395;72;21639;-71
2021/07/03 05:57:59;;;;;;;17.67;8.05;;;19.30;99.90;;;;;;1945505;72;21121;-71
2021/07/03 06:00:27;;;;;;;14.18;7.90;;;19.30;99.90;;;;;;1944471;72;21129;-72
2021/07/03 06:02:54;;;;;;;13.53;7.25;;;19.40;99.90;;;;;;1951090;72;21543;-72
2021/07/03 06:05:22;;;;;;;16.35;6.90;;;19.40;99.90;;;;;;1944799;72;21175;-71
2021/07/03 06:07:49;;;;;;;12.20;5.83;;;19.40;99.90;;;;;;1945808;72;21106;-71
2021/07/03 06:10:16;;;;;;;11.53;5.67;;;19.50;99.90;;;;;;1944344;72;21091;-71
2021/07/03 06:12:44;;;;;;;12.47;5.55;;;19.50;99.90;;;;;;1945256;74;21158;-71
2021/07/03 06:15:13;;;;;;;10.93;5.10;;;19.60;99.90;;;;;;1945508;72;21071;-73
2021/07/03 06:17:40;;;;;;;9.48;4.65;;;19.60;99.90;;;;;;1913011;74;21087;-72
2021/07/03 06:20:09;;;;;;;9.48;5.12;;;19.60;99.90;;;;;;1902590;74;21109;-71
2021/07/03 06:22:38;;;;;;;8.95;5.12;;;19.70;99.90;;;;;;1934602;74;21121;-71
2021/07/03 06:25:08;;;;;;;11.75;4.58;;;19.70;99.90;;;;;;1915052;73;21085;-71
2021/07/03 06:27:37;;;;;;;9.00;4.90;;;19.70;99.90;;;;;;1913267;74;21059;-71
2021/07/03 06:30:06;;;;;;;11.50;5.50;;;19.80;99.90;;;;;;1934179;72;21111;-70
2021/07/03 06:32:34;;;;;;;9.53;5.17;;;19.90;99.90;;;;;;1944952;72;21159;-70
2021/07/03 06:35:02;;;;;;;8.30;4.25;;;19.90;99.90;;;;;;1943899;72;21082;-70
2021/07/03 06:37:29;;;;;;;8.70;4.20;;;19.90;99.90;;;;;;1943848;72;21159;-70
2021/07/03 06:39:57;;;;;;;7.08;4.33;;;19.90;99.90;;;;;;1945364;72;21063;-70
2021/07/03 06:42:24;;;;;;;8.05;4.42;;;20.00;99.90;;;;;;1941268;72;21129;-72
2021/07/03 06:44:52;;;;;;;10.10;4.30;;;20.00;99.90;;;;;;1945049;72;21135;-71
2021/07/03 06:47:20;;;;;;;7.75;3.90;;;20.00;99.90;;;;;;1944917;74;21097;-76
2021/07/03 06:49:48;;;;;;;11.28;3.95;;;20.00;99.90;;;;;;1945492;72;21175;-71
2021/07/03 06:52:15;;;;;;;9.20;4.42;;;20.10;99.90;;;;;;1944936;72;21141;-72
2021/07/03 06:54:43;;;;;;;9.95;4.28;;;20.10;99.90;;;;;;1945327;73;21101;-72
2021/07/03 06:57:12;;;;;;;10.65;4.40;;;20.10;99.90;;;;;;1944969;72;21114;-72
2021/07/03 06:59:40;;;;;;;7.70;4.40;;;20.20;99.90;;;;;;1945143;72;21107;-72
2021/07/03 07:02:08;;;;;;;8.83;3.87;;;20.20;99.90;;;;;;1939042;72;21624;-72
2021/07/03 07:04:35;;;;;;;10.13;3.90;;;20.20;99.90;;;;;;1945193;72;21497;-73
2021/07/03 07:07:03;;;;;;;8.98;3.83;;;20.30;99.90;;;;;;1944700;72;21090;-73
2021/07/03 07:09:31;;;;;;;9.93;4.10;;;20.30;99.90;;;;;;1944399;72;21118;-72
2021/07/03 07:11:59;;;;;;;9.88;3.92;;;20.30;99.90;;;;;;1943197;72;21062;-73
2021/07/03 07:14:27;;;;;;;8.05;3.67;;;20.40;99.90;;;;;;1941393;72;21117;-73
2021/07/03 07:16:54;;;;;;;6.12;3.77;;;20.40;99.90;;;;;;1934050;72;21172;-74
2021/07/03 07:19:22;;;;;;;13.53;4.00;;;20.50;99.90;;;;;;1934276;73;21372;-73
2021/07/03 07:21:50;;;;;;;10.03;3.77;;;20.50;99.90;;;;;;1943996;72;21007;-75
2021/07/03 07:24:17;;;;;;;7.47;3.65;;;20.50;99.90;;;;;;1945072;73;21058;-74
2021/07/03 07:26:46;;;;;;;10.08;3.87;;;20.50;99.90;;;;;;1948314;73;21194;-74
2021/07/03 07:29:13;;;;;;;8.48;3.60;;;20.60;99.90;;;;;;1946336;72;21125;-74
2021/07/03 07:31:41;;;;;;;14.65;4.00;;;20.60;99.90;;;;;;1945962;73;21154;-72
2021/07/03 07:34:08;;;;;;;5.90;3.67;;;20.60;99.90;;;;;;1945941;74;21085;-72
2021/07/03 07:36:36;;;;;;;9.05;4.08;;;20.70;99.90;;;;;;1945881;74;21104;-72
2021/07/03 07:39:04;;;;;;;10.20;4.22;;;20.70;99.90;;;;;;1918413;73;21604;-72
2021/07/03 07:41:32;;;;;;;10.72;4.35;;;20.70;99.90;;;;;;1940864;74;21103;-72
2021/07/03 07:43:59;;;;;;;7.58;4.15;;;20.80;99.90;;;;;;1934823;73;21061;-72
2021/07/03 07:46:27;;;;;;;6.65;3.42;;;20.80;99.90;;;;;;1944641;74;21087;-72
2021/07/03 07:48:56;;;;;;;8.83;3.85;;;20.80;99.90;;;;;;1943515;72;21558;-72
2021/07/03 07:51:23;;;;;;;8.60;3.87;;;20.90;99.90;;;;;;1943135;72;21166;-72
2021/07/03 07:53:51;;;;;;;7.10;3.95;;;20.90;99.90;;;;;;1945740;74;22083;-71
2021/07/03 07:56:19;;;;;;;7.90;3.35;;;20.90;99.90;;;;;;1945228;72;21050;-71
2021/07/03 07:58:47;;;;;;;6.45;3.62;;;21.00;99.90;;;;;;1945858;72;21042;-72
2021/07/03 08:01:14;;;;;;;7.20;3.20;;;21.00;99.90;;;;;;1944874;74;21211;-71
2021/07/03 08:03:43;;;;;;;5.85;2.98;;;21.00;99.90;;;;;;1944763;74;21087;-72
2021/07/03 08:06:11;;;;;;;7.67;3.20;;;21.10;99.90;;;;;;1943572;74;21140;-72
2021/07/03 08:08:38;;;;;;;6.08;3.10;;;21.10;99.90;;;;;;1945036;72;21086;-72
2021/07/03 08:11:06;;;;;;;6.95;3.72;;;21.10;99.90;;;;;;1944572;74;21074;-70
2021/07/03 08:13:34;;;;;;;9.43;3.27;;;21.10;99.90;;;;;;1944401;73;21163;-69
2021/07/03 08:16:01;;;;;;;6.50;3.85;;;21.20;99.90;;;;;;1945216;74;21093;-71
2021/07/03 08:18:29;;;;;;;8.58;3.52;;;21.20;99.90;;;;;;1931895;72;21564;-74
2021/07/03 08:20:57;;;;;;;7.87;3.70;;;21.20;99.90;;;;;;1944985;72;21588;-72
2021/07/03 08:23:24;;;;;;;7.08;3.60;;;21.30;99.90;;;;;;1933415;74;21102;-73
2021/07/03 08:25:52;;;;;;;8.38;3.77;;;21.30;99.90;;;;;;1943867;73;21167;-72
2021/07/03 08:28:19;;;;;;;7.72;3.92;;;21.20;99.90;;;;;;1944851;72;21168;-73
2021/07/03 08:30:47;;;;;;;5.80;3.80;;;21.20;99.90;;;;;;1944174;74;21062;-72
2021/07/03 08:33:14;;;;;;;7.65;3.85;;;21.10;99.90;;;;;;1943896;73;21629;-71
2021/07/03 08:35:42;;;;;;;5.37;2.98;;;21.20;99.90;;;;;;1942316;74;21491;-71
2021/07/03 08:38:09;;;;;;;5.53;3.02;;;21.20;99.90;;;;;;1943708;72;21801;-71
2021/07/03 08:40:37;;;;;;;6.53;3.60;;;21.20;99.90;;;;;;1944079;74;21063;-71
2021/07/03 08:43:05;;;;;;;7.95;3.62;;;21.30;99.90;;;;;;1942138;73;21606;-71
2021/07/03 08:45:32;;;;;;;7.70;3.40;;;21.30;99.90;;;;;;1939368;74;21093;-72
2021/07/03 08:48:00;;;;;;;4.78;2.87;;;21.40;99.90;;;;;;1939595;72;21094;-71
2021/07/03 08:50:27;;;;;;;7.97;3.20;;;21.40;99.90;;;;;;1941652;74;21215;-72
2021/07/03 08:52:55;;;;;;;8.35;3.80;;;21.50;99.90;;;;;;1939284;72;21093;-71
2021/07/03 08:55:25;;;;;;;8.80;3.60;;;21.50;99.90;;;;;;1942457;72;21528;-72
2021/07/03 08:57:54;;;;;;;8.35;3.40;;;21.50;99.90;;;;;;1863324;72;21633;-72
2021/07/03 09:00:25;;;;;;;7.42;3.40;;;21.60;99.90;;;;;;1869630;77;21182;-72
2021/07/03 09:02:52;;;;;;;7.70;3.45;;;21.60;99.90;;;;;;1831259;78;21170;-72
2021/07/03 09:05:32;;;;;;;10.05;4.40;;;21.70;99.90;;;;;;1831602;77;21544;-72
2021/07/03 09:08:08;;;;;;;6.97;3.62;;;21.70;99.90;;;;;;1845513;77;21073;-72
2021/07/03 09:10:38;;;;;;;8.50;3.15;;;21.80;99.90;;;;;;1878671;76;21121;-72
2021/07/03 09:13:07;;;;;;;5.35;3.20;;;21.80;99.90;;;;;;1831353;78;21117;-72
2021/07/03 09:15:37;;;;;;;7.12;3.62;;;21.80;99.90;;;;;;1869182;77;21545;-72
2021/07/03 09:18:07;;;;;;;7.72;3.72;;;21.90;99.90;;;;;;1828410;78;21086;-72
2021/07/03 09:20:50;;;;;;;6.28;3.55;;;22.00;99.90;;;;;;1858219;77;21233;-72
2021/07/03 09:23:20;;;;;;;5.37;3.00;;;22.00;99.90;;;;;;1867791;77;21147;-72
2021/07/03 09:25:53;;;;;;;6.97;3.40;;;22.10;99.90;;;;;;1854422;77;21108;-72
2021/07/03 09:28:26;;;;;;;6.17;3.12;;;22.10;99.90;;;;;;1854430;77;21112;-73
2021/07/03 09:31:00;;;;;;;9.25;3.83;;;22.10;99.90;;;;;;1847100;77;21631;-72
2021/07/03 09:33:32;;;;;;;9.15;4.05;;;22.10;99.90;;;;;;1839241;77;21206;-72
2021/07/03 09:36:08;;;;;;;7.87;3.80;;;22.10;99.90;;;;;;1852579;77;21454;-73
2021/07/03 09:38:40;;;;;;;4.72;3.30;;;22.10;99.90;;;;;;1830836;78;21155;-72
2021/07/03 09:41:28;;;;;;;8.83;3.62;;;22.10;99.90;;;;;;1834711;77;21072;-72
2021/07/03 09:43:57;;;;;;;4.58;3.17;;;22.20;99.90;;;;;;1830383;77;21053;-72
2021/07/03 09:46:27;;;;;;;8.13;3.60;;;22.30;99.90;;;;;;1840783;77;21085;-73
2021/07/03 09:48:57;;;;;;;8.08;3.98;;;22.40;99.90;;;;;;1857441;77;21053;-72
2021/07/03 09:51:36;;;;;;;8.53;4.17;;;22.50;99.90;;;;;;1852648;77;21091;-73
2021/07/03 09:54:07;;;;;;;7.67;3.37;;;22.60;99.90;;;;;;1830350;77;22057;-72
2021/07/03 09:56:36;;;;;;;6.83;3.47;;;22.70;99.90;;;;;;1831456;76;21188;-73
2021/07/03 09:59:04;;;;;;;6.25;3.72;;;22.70;99.90;;;;;;1831407;77;21179;-73
2021/07/03 10:01:32;;;;;;;8.13;3.67;;;22.70;99.90;;;;;;1832526;77;21069;-73
2021/07/03 10:04:01;;;;;;;9.78;4.00;;;22.70;99.90;;;;;;1844303;77;21055;-73
2021/07/03 10:06:43;;;;;;;6.62;3.35;;;22.70;99.90;;;;;;1831598;77;21176;-73
2021/07/03 10:09:25;;;;;;;8.18;3.55;;;22.80;99.90;;;;;;1837638;77;21199;-73
2021/07/03 10:11:56;;;;;;;7.15;3.52;;;22.80;99.90;;;;;;1851201;76;21121;-73
2021/07/03 10:14:26;;;;;;;6.67;3.15;;;22.80;99.90;;;;;;1831021;76;21191;-74
2021/07/03 10:17:04;;;;;;;5.25;2.58;;;23.00;99.90;;;;;;1830222;77;21214;-73
2021/07/03 10:19:34;;;;;;;6.17;3.30;;;23.00;99.90;;;;;;1830426;77;21179;-73
2021/07/03 10:22:16;;;;;;;7.25;3.20;;;23.10;99.90;;;;;;1834932;77;21194;-73
2021/07/03 10:24:52;;;;;;;7.35;2.98;;;23.20;99.90;;;;;;1830211;77;21600;-74
2021/07/03 10:27:26;;;;;;;7.78;2.80;;;23.30;99.90;;;;;;1830755;77;21172;-74
2021/07/03 10:29:56;;;;;;;7.65;3.05;;;23.30;99.90;;;;;;1831392;78;21135;-74
2021/07/03 10:32:30;;;;;;;6.37;2.85;;;23.50;99.90;;;;;;1829151;77;21112;-74
2021/07/03 10:35:13;;;;;;;6.35;3.02;;;23.60;99.90;;;;;;1830664;77;21236;-74
2021/07/03 10:37:43;;;;;;;7.40;3.00;;;23.70;99.90;;;;;;1828171;77;21125;-73
2021/07/03 10:40:32;;;;;;;5.05;3.05;;;23.70;99.90;;;;;;1840244;77;21057;-74
2021/07/03 10:43:08;;;;;;;6.33;2.92;;;23.70;99.90;;;;;;1833193;77;21578;-74
2021/07/03 10:45:45;;;;;;;4.97;3.22;;;23.80;99.90;;;;;;1838405;77;21160;-74
2021/07/03 10:48:24;;;;;;;5.50;3.27;;;23.90;99.90;;;;;;1821736;77;21027;-74
2021/07/03 10:50:54;;;;;;;7.90;3.20;;;23.90;99.90;;;;;;1844625;77;21046;-75
2021/07/03 10:53:27;;;;;;;6.85;2.98;;;24.00;99.90;;;;;;1839407;77;21056;-74
2021/07/03 10:55:56;;;;;;;11.78;2.87;;;24.00;99.90;;;;;;1839922;77;21097;-74
2021/07/03 10:58:30;;;;;;;5.95;2.85;;;23.90;99.90;;;;;;1830832;77;21061;-74
2021/07/03 11:01:09;;;;;;;5.50;3.30;;;23.90;99.90;;;;;;1830689;77;21108;-72
2021/07/03 11:03:47;;;;;;;6.58;3.15;;;24.00;99.90;;;;;;1825973;77;21650;-73
2021/07/03 11:06:22;;;;;;;6.90;3.22;;;24.00;99.90;;;;;;1829762;78;21201;-71
2021/07/03 11:08:50;;;;;;;9.30;4.00;;;24.00;99.90;;;;;;1830964;78;21561;-72
2021/07/03 11:11:19;;;;;;;4.47;2.67;;;24.10;99.90;;;;;;1840400;77;21085;-72
2021/07/03 11:13:48;;;;;;;5.72;2.50;;;24.10;99.90;;;;;;1871954;76;21178;-72
2021/07/03 11:16:16;;;;;;;6.62;2.72;;;24.10;99.90;;;;;;1837145;78;21102;-72
2021/07/03 11:18:45;;;;;;;4.87;2.80;;;24.10;99.90;;;;;;1833811;78;21112;-72
2021/07/03 11:21:15;;;;;;;4.80;2.80;;;24.10;99.90;;;;;;1830864;78;21171;-72
2021/07/03 11:23:43;;;;;;;4.97;2.90;;;24.20;99.90;;;;;;1831330;78;21116;-72
2021/07/03 11:26:12;;;;;;;6.87;3.12;;;24.20;99.90;;;;;;1830060;77;21067;-72
2021/07/03 11:28:41;;;;;;;10.43;3.17;;;24.30;99.90;;;;;;1794867;80;21221;-71
2021/07/03 11:31:09;;;;;;;5.53;3.12;;;24.30;99.90;;;;;;1829686;77;21116;-72
2021/07/03 11:33:37;;;;;;;7.25;3.17;;;24.40;99.90;;;;;;1819533;79;21035;-72
2021/07/03 11:36:06;;;;;;;5.30;2.80;;;24.50;99.90;;;;;;1819616;79;21113;-72
2021/07/03 11:38:34;;;;;;;5.45;2.85;;;24.50;99.90;;;;;;1819466;79;21421;-72
2021/07/03 11:41:04;;;;;;;6.20;2.55;;;24.50;99.90;;;;;;1826959;78;21463;-71
2021/07/03 11:43:33;;;;;;;6.05;2.55;;;24.50;99.90;;;;;;1875554;75;21194;-73
2021/07/03 11:46:03;;;;;;;7.15;2.98;;;24.50;99.90;;;;;;1881334;75;21100;-72
2021/07/03 11:48:31;;;;;;;4.28;2.47;;;24.60;99.90;;;;;;1874289;75;21172;-74
2021/07/03 11:51:03;;;;;;;6.85;2.87;;;24.60;99.90;;;;;;1866182;75;21190;-73
2021/07/03 11:53:35;;;;;;;;;;;24.60;99.90;;;;;;1831207;77;21084;-73
2021/07/03 11:56:03;;;;;;;8.00;3.12;;;24.60;99.90;;;;;;1826746;78;20781;-73
2021/07/03 11:58:32;;;;;;;5.83;3.22;;;24.60;99.90;;;;;;1794978;80;21133;-72
2021/07/03 12:01:20;;;;;;;5.17;2.85;;;24.50;99.00;;;;;;1830911;78;21134;-73
2021/07/03 12:03:49;;;;;;;11.18;3.50;;;24.50;99.90;;;;;;1844914;77;21186;-72
2021/07/03 12:06:22;;;;;;;5.22;3.22;;;24.50;99.90;;;;;;1864589;77;21208;-73
2021/07/03 12:08:52;;;;;;;7.00;3.80;;;24.60;99.90;;;;;;1865403;77;21111;-72
2021/07/03 12:11:23;;;;;;;9.28;3.42;;;24.60;99.90;;;;;;1840972;77;21029;-73
2021/07/03 12:13:53;;;;;;;6.33;3.30;;;24.70;98.50;;;;;;1833343;77;21096;-72
2021/07/03 12:16:23;;;;;;;7.70;3.87;;;24.70;98.50;;;;;;1832622;78;21144;-72
2021/07/03 12:18:53;;;;;;;5.92;3.92;;;24.80;99.90;;;;;;1832410;78;21116;-73
2021/07/03 12:21:34;;;;;;;9.78;4.00;;;24.80;98.80;;;;;;1800793;79;21607;-72
2021/07/03 12:24:07;;;;;;;6.67;3.30;;;24.80;99.30;;;;;;1828250;77;21491;-73
2021/07/03 12:26:42;;;;;;;10.88;3.45;;;24.70;99.90;;;;;;1832669;78;21519;-70
2021/07/03 12:29:23;;;;;;;3.60;2.70;;;24.90;99.90;;;;;;1832322;78;21188;-72
2021/07/03 12:31:45;;;;;;;7.78;3.60;;;;;;;;;;1830976;78;21206;-72
2021/07/03 12:34:25;;;;;;;7.00;3.30;;;24.60;99.90;;;;;;1832776;78;21159;-71
2021/07/03 12:36:53;;;;;;;6.75;3.22;;;24.70;99.90;;;;;;1832051;78;21101;-72
2021/07/03 12:39:23;;;;;;;4.10;3.10;;;24.80;99.90;;;;;;1830026;78;21144;-71
2021/07/03 12:42:03;;;;;;;6.83;3.02;;;24.60;99.90;;;;;;1833137;78;21579;-71
2021/07/03 12:44:45;;;;;;;4.12;3.00;;;24.90;99.90;;;;;;1833336;78;21085;-72
2021/07/03 12:47:15;;;;;;;5.70;3.17;;;25.00;99.90;;;;;;1803264;79;21163;-72
2021/07/03 12:49:46;;;;;;;4.78;2.90;;;25.00;99.90;;;;;;1801681;78;21648;-72